Detall de PIREP

Printer-friendly versionPDF version

[2012/09/01 15:30:00]
Flight IATA:CT1001
Pilot Number:026
Company ICAO:CAT
Aircraft Type:F50/A
PAX:50
Aircraft Registration:PAOB
Departing Airport: LFKJ
Destination Airport: LICJ
Alternate Airport:LICA
Online: VATSIM
Route:CORS4H/20 CORSI UM858 RAMEN UM732 CAR UM871 KAPIL
Flight Level:F250
No Slew and time accel
No pause
Crash detect
Detect pilot in Cockpit between each 30 and 45 minutes
15:30 Zero fuel Weight: 39183 Lbs, Fuel Weight: 4122 Lbs
15:30 VATSIM:LFKJ 011500Z 21014KT 9999 BKN040 21/12 Q1013 NOSIG
15:30 VATSIM:LICJ 011450Z 29010KT 9999 SCT025 24/16 Q1016
15:31 VOICE CATALONIAN / MEDITERRANEAN ODYSSEY LEG 2
15:44 Parking Brakes off
15:52 Take-off
15:52 Take off Weight: 43181 Lbs
15:52 Wind: 211º @ 014 Knots Heading: 204º
15:52 POS N41º 55´ 11´´ E008º 47´ 59´´
15:52 Gear Up: 117 Knots
15:52 Flaps:2 at 117 Knots
15:53 Flaps:1 at 105 Knots
15:54 Flaps:0 at125 Knots
16:07 Wind:247º@033 Knots Heading: 183º Ground Speed: 254 Knots Altitude 18284 ft
16:16 TOC
16:16 Fuel Weight: 3027 Lb
16:22 Wind:273º@047 Knots Heading: 187º Ground Speed: 250 Knots Altitude 25059 ft
16:37 Wind:289º@088 Knots Heading: 159º Ground Speed: 313 Knots Altitude 25072 ft
16:52 Wind:296º@048 Knots Heading: 108º Ground Speed: 301 Knots Altitude 25072 ft
17:01 TOD
17:01 Fuel Weight: 2049 Lb
17:07 Wind:294º@025 Knots Heading: 103º Ground Speed: 314 Knots Altitude 15492 ft
17:20 Gear Down: 192 Knots
17:20 Flaps:1 at 191 Knots
17:20 Flaps:2 at 191 Knots
17:21 Flaps:3 at 132 Knots
17:21 Flaps:4 at 132 Knots
17:22 Wind:259º@006 Knots Heading: 247º Ground Speed: 109 Knots Altitude 118 ft
17:22 TouchDown:Rate -199 ft/min Speed: 99 Knots
17:22 Flaps:5 at 90 Knots
17:22 VATSIM:LICJ 011650Z 26005KT CAVOK 24/11 Q1016
17:22 Land
17:22 Wind:259º@005 Knots
17:22 Heading: 245º
17:22 Flight Duration: 01:30
17:22 Landing Weight: 40979 Lbs
17:22 POS N38º 10´ 51´´ E013º 06´ 22´´
17:26 Parking brakes on
17:26 Block to Block Duration: 01:42
17:26 Final Fuel: 1761 Lbls
17:26 Spent Fuel: 2361 Lbls
17:26 Flight Length: 388 NM
17:26 TOD Land Length: 81 NM

Exportar CSV

Powered by Drupal - Modified by Danger4k